sensor_id;sensor_type;location;lat;lon;timestamp;P1;durP1;ratioP1;P2;durP2;ratioP2
22916;SDS011;11624;53.250;7.456;2023-05-02T00:01:03;29.80;;;15.60;;
22916;SDS011;11624;53.250;7.456;2023-05-02T00:03:33;28.55;;;14.40;;
22916;SDS011;11624;53.250;7.456;2023-05-02T00:06:02;30.60;;;16.02;;
22916;SDS011;11624;53.250;7.456;2023-05-02T00:08:30;30.02;;;14.13;;
22916;SDS011;11624;53.250;7.456;2023-05-02T00:10:58;29.73;;;13.35;;
22916;SDS011;11624;53.250;7.456;2023-05-02T00:13:26;26.92;;;12.55;;
22916;SDS011;11624;53.250;7.456;2023-05-02T00:15:54;28.80;;;11.98;;
22916;SDS011;11624;53.250;7.456;2023-05-02T00:18:22;25.15;;;11.40;;
22916;SDS011;11624;53.250;7.456;2023-05-02T00:20:52;26.45;;;11.23;;
22916;SDS011;11624;53.250;7.456;2023-05-02T00:23:21;22.65;;;13.13;;
22916;SDS011;11624;53.250;7.456;2023-05-02T00:25:50;18.98;;;7.88;;
22916;SDS011;11624;53.250;7.456;2023-05-02T00:28:18;17.77;;;7.75;;
22916;SDS011;11624;53.250;7.456;2023-05-02T00:30:46;19.35;;;7.05;;
22916;SDS011;11624;53.250;7.456;2023-05-02T00:33:15;16.33;;;7.32;;
22916;SDS011;11624;53.250;7.456;2023-05-02T00:35:43;20.75;;;7.60;;
22916;SDS011;11624;53.250;7.456;2023-05-02T00:38:12;20.20;;;7.35;;
22916;SDS011;11624;53.250;7.456;2023-05-02T00:40:44;17.70;;;7.28;;
22916;SDS011;11624;53.250;7.456;2023-05-02T00:43:13;18.52;;;7.38;;
22916;SDS011;11624;53.250;7.456;2023-05-02T00:45:42;19.13;;;6.93;;
22916;SDS011;11624;53.250;7.456;2023-05-02T00:48:11;23.83;;;7.65;;
22916;SDS011;11624;53.250;7.456;2023-05-02T00:50:41;25.25;;;7.57;;
22916;SDS011;11624;53.250;7.456;2023-05-02T00:53:09;18.70;;;7.85;;
22916;SDS011;11624;53.250;7.456;2023-05-02T00:55:39;19.15;;;7.65;;
22916;SDS011;11624;53.250;7.456;2023-05-02T00:58:07;18.88;;;6.82;;
22916;SDS011;11624;53.250;7.456;2023-05-02T01:00:40;19.27;;;7.22;;
22916;SDS011;11624;53.250;7.456;2023-05-02T01:03:29;22.48;;;7.00;;
22916;SDS011;11624;53.250;7.456;2023-05-02T01:06:06;15.65;;;5.80;;
22916;SDS011;11624;53.250;7.456;2023-05-02T01:08:45;13.75;;;5.53;;
22916;SDS011;11624;53.250;7.456;2023-05-02T01:11:22;11.88;;;4.20;;
22916;SDS011;11624;53.250;7.456;2023-05-02T01:14:02;11.95;;;4.03;;
22916;SDS011;11624;53.250;7.456;2023-05-02T01:16:32;14.70;;;4.43;;
22916;SDS011;11624;53.250;7.456;2023-05-02T01:19:07;12.57;;;3.92;;
22916;SDS011;11624;53.250;7.456;2023-05-02T01:21:39;13.23;;;4.10;;
22916;SDS011;11624;53.250;7.456;2023-05-02T01:24:09;12.52;;;4.40;;
22916;SDS011;11624;53.250;7.456;2023-05-02T01:26:45;15.40;;;4.57;;
22916;SDS011;11624;53.250;7.456;2023-05-02T01:29:20;15.38;;;4.13;;
22916;SDS011;11624;53.250;7.456;2023-05-02T01:31:49;18.23;;;4.72;;
22916;SDS011;11624;53.250;7.456;2023-05-02T01:34:19;19.52;;;5.00;;
22916;SDS011;11624;53.250;7.456;2023-05-02T01:36:49;20.55;;;5.00;;
22916;SDS011;11624;53.250;7.456;2023-05-02T01:39:19;20.88;;;5.05;;
22916;SDS011;11624;53.250;7.456;2023-05-02T01:41:49;19.85;;;5.28;;
22916;SDS011;11624;53.250;7.456;2023-05-02T01:44:20;21.42;;;5.95;;
22916;SDS011;11624;53.250;7.456;2023-05-02T01:46:50;19.35;;;5.50;;
22916;SDS011;11624;53.250;7.456;2023-05-02T01:49:19;19.35;;;5.85;;
22916;SDS011;11624;53.250;7.456;2023-05-02T01:51:49;20.73;;;5.22;;
22916;SDS011;11624;53.250;7.456;2023-05-02T01:54:19;20.20;;;5.47;;
22916;SDS011;11624;53.250;7.456;2023-05-02T01:56:49;24.02;;;5.90;;
22916;SDS011;11624;53.250;7.456;2023-05-02T01:59:21;23.75;;;5.40;;
22916;SDS011;11624;53.250;7.456;2023-05-02T02:01:50;26.20;;;5.28;;
22916;SDS011;11624;53.250;7.456;2023-05-02T02:04:19;19.77;;;4.63;;
22916;SDS011;11624;53.250;7.456;2023-05-02T02:06:51;15.18;;;3.95;;
22916;SDS011;11624;53.250;7.456;2023-05-02T02:09:21;25.80;;;4.55;;
22916;SDS011;11624;53.250;7.456;2023-05-02T02:11:51;20.38;;;4.00;;
22916;SDS011;11624;53.250;7.456;2023-05-02T02:14:26;21.02;;;4.40;;
22916;SDS011;11624;53.250;7.456;2023-05-02T02:17:00;19.50;;;4.35;;
22916;SDS011;11624;53.250;7.456;2023-05-02T02:19:31;29.90;;;4.90;;
22916;SDS011;11624;53.250;7.456;2023-05-02T02:22:00;26.02;;;4.63;;
22916;SDS011;11624;53.250;7.456;2023-05-02T02:24:33;31.60;;;5.18;;
22916;SDS011;11624;53.250;7.456;2023-05-02T02:27:03;24.60;;;4.90;;
22916;SDS011;11624;53.250;7.456;2023-05-02T02:29:33;24.30;;;5.07;;
22916;SDS011;11624;53.250;7.456;2023-05-02T02:32:02;25.58;;;5.32;;
22916;SDS011;11624;53.250;7.456;2023-05-02T02:34:30;22.35;;;4.55;;
22916;SDS011;11624;53.250;7.456;2023-05-02T02:36:59;21.23;;;4.50;;
22916;SDS011;11624;53.250;7.456;2023-05-02T02:39:38;23.00;;;4.90;;
22916;SDS011;11624;53.250;7.456;2023-05-02T02:42:15;19.95;;;5.07;;
22916;SDS011;11624;53.250;7.456;2023-05-02T02:44:51;23.42;;;5.03;;
22916;SDS011;11624;53.250;7.456;2023-05-02T02:47:23;22.45;;;4.85;;
22916;SDS011;11624;53.250;7.456;2023-05-02T02:49:59;26.00;;;4.93;;
22916;SDS011;11624;53.250;7.456;2023-05-02T02:52:39;25.55;;;5.10;;
22916;SDS011;11624;53.250;7.456;2023-05-02T02:55:20;20.52;;;4.68;;
22916;SDS011;11624;53.250;7.456;2023-05-02T02:57:58;26.17;;;4.85;;
22916;SDS011;11624;53.250;7.456;2023-05-02T03:00:31;22.05;;;4.70;;
22916;SDS011;11624;53.250;7.456;2023-05-02T03:03:01;23.27;;;5.53;;
22916;SDS011;11624;53.250;7.456;2023-05-02T03:05:29;25.52;;;5.10;;
22916;SDS011;11624;53.250;7.456;2023-05-02T03:08:00;21.35;;;5.20;;
22916;SDS011;11624;53.250;7.456;2023-05-02T03:10:28;22.58;;;5.78;;
22916;SDS011;11624;53.250;7.456;2023-05-02T03:12:56;23.83;;;5.00;;
22916;SDS011;11624;53.250;7.456;2023-05-02T03:15:30;22.67;;;5.38;;
22916;SDS011;11624;53.250;7.456;2023-05-02T03:18:20;23.10;;;5.18;;
22916;SDS011;11624;53.250;7.456;2023-05-02T03:20:49;25.05;;;5.40;;
22916;SDS011;11624;53.250;7.456;2023-05-02T03:23:17;26.25;;;5.70;;
22916;SDS011;11624;53.250;7.456;2023-05-02T03:25:46;23.10;;;5.30;;
22916;SDS011;11624;53.250;7.456;2023-05-02T03:28:19;26.30;;;5.28;;
22916;SDS011;11624;53.250;7.456;2023-05-02T03:30:50;20.10;;;5.35;;
22916;SDS011;11624;53.250;7.456;2023-05-02T03:33:19;27.90;;;5.57;;
22916;SDS011;11624;53.250;7.456;2023-05-02T03:35:48;22.75;;;5.07;;
22916;SDS011;11624;53.250;7.456;2023-05-02T03:38:16;20.60;;;5.70;;
22916;SDS011;11624;53.250;7.456;2023-05-02T03:40:46;23.02;;;5.75;;
22916;SDS011;11624;53.250;7.456;2023-05-02T03:43:14;31.30;;;5.97;;
22916;SDS011;11624;53.250;7.456;2023-05-02T03:45:43;28.52;;;5.25;;
22916;SDS011;11624;53.250;7.456;2023-05-02T03:48:16;25.33;;;5.60;;
22916;SDS011;11624;53.250;7.456;2023-05-02T03:50:44;24.83;;;5.28;;
22916;SDS011;11624;53.250;7.456;2023-05-02T03:53:12;28.40;;;6.10;;
22916;SDS011;11624;53.250;7.456;2023-05-02T03:55:49;20.85;;;5.03;;
22916;SDS011;11624;53.250;7.456;2023-05-02T03:58:26;28.77;;;8.23;;
22916;SDS011;11624;53.250;7.456;2023-05-02T04:00:54;24.55;;;5.43;;
22916;SDS011;11624;53.250;7.456;2023-05-02T04:03:27;21.38;;;5.07;;
22916;SDS011;11624;53.250;7.456;2023-05-02T04:05:58;24.75;;;5.13;;
22916;SDS011;11624;53.250;7.456;2023-05-02T04:08:26;29.20;;;4.43;;
22916;SDS011;11624;53.250;7.456;2023-05-02T04:10:56;27.30;;;5.10;;
22916;SDS011;11624;53.250;7.456;2023-05-02T04:13:25;25.38;;;5.38;;
22916;SDS011;11624;53.250;7.456;2023-05-02T04:15:56;23.70;;;4.65;;
22916;SDS011;11624;53.250;7.456;2023-05-02T04:18:29;17.95;;;4.47;;
22916;SDS011;11624;53.250;7.456;2023-05-02T04:21:00;21.90;;;4.63;;
22916;SDS011;11624;53.250;7.456;2023-05-02T04:23:29;22.33;;;4.32;;
22916;SDS011;11624;53.250;7.456;2023-05-02T04:26:00;16.60;;;4.35;;
22916;SDS011;11624;53.250;7.456;2023-05-02T04:28:37;21.02;;;4.05;;
22916;SDS011;11624;53.250;7.456;2023-05-02T04:31:06;26.23;;;4.78;;
22916;SDS011;11624;53.250;7.456;2023-05-02T04:33:37;19.63;;;3.95;;
22916;SDS011;11624;53.250;7.456;2023-05-02T04:36:05;17.58;;;3.83;;
22916;SDS011;11624;53.250;7.456;2023-05-02T04:38:38;15.73;;;3.72;;
22916;SDS011;11624;53.250;7.456;2023-05-02T04:41:06;23.00;;;4.18;;
22916;SDS011;11624;53.250;7.456;2023-05-02T04:43:40;15.30;;;4.28;;
22916;SDS011;11624;53.250;7.456;2023-05-02T04:46:09;17.08;;;3.55;;
22916;SDS011;11624;53.250;7.456;2023-05-02T04:48:39;16.42;;;4.03;;
22916;SDS011;11624;53.250;7.456;2023-05-02T04:51:07;15.02;;;3.30;;
22916;SDS011;11624;53.250;7.456;2023-05-02T04:53:36;14.05;;;3.75;;
22916;SDS011;11624;53.250;7.456;2023-05-02T04:56:04;14.63;;;3.78;;
22916;SDS011;11624;53.250;7.456;2023-05-02T04:58:35;16.75;;;4.07;;
22916;SDS011;11624;53.250;7.456;2023-05-02T05:01:06;18.33;;;3.55;;
22916;SDS011;11624;53.250;7.456;2023-05-02T05:03:35;18.25;;;3.67;;
22916;SDS011;11624;53.250;7.456;2023-05-02T05:06:07;16.13;;;4.50;;
22916;SDS011;11624;53.250;7.456;2023-05-02T05:08:35;19.55;;;4.75;;
22916;SDS011;11624;53.250;7.456;2023-05-02T05:11:04;21.60;;;4.07;;
22916;SDS011;11624;53.250;7.456;2023-05-02T05:13:32;13.35;;;3.65;;
22916;SDS011;11624;53.250;7.456;2023-05-02T05:16:01;22.73;;;5.07;;
22916;SDS011;11624;53.250;7.456;2023-05-02T05:18:31;15.05;;;4.32;;
22916;SDS011;11624;53.250;7.456;2023-05-02T05:21:09;20.13;;;4.28;;
22916;SDS011;11624;53.250;7.456;2023-05-02T05:23:38;19.60;;;3.83;;
22916;SDS011;11624;53.250;7.456;2023-05-02T05:26:14;20.38;;;4.35;;
22916;SDS011;11624;53.250;7.456;2023-05-02T05:28:47;18.35;;;4.20;;
22916;SDS011;11624;53.250;7.456;2023-05-02T05:31:17;23.67;;;4.38;;
22916;SDS011;11624;53.250;7.456;2023-05-02T05:33:49;19.77;;;3.85;;
22916;SDS011;11624;53.250;7.456;2023-05-02T05:36:20;17.63;;;4.18;;
22916;SDS011;11624;53.250;7.456;2023-05-02T05:38:49;21.27;;;4.47;;
22916;SDS011;11624;53.250;7.456;2023-05-02T05:41:18;19.15;;;4.30;;
22916;SDS011;11624;53.250;7.456;2023-05-02T05:43:51;13.68;;;3.50;;
22916;SDS011;11624;53.250;7.456;2023-05-02T05:46:19;16.65;;;4.35;;
22916;SDS011;11624;53.250;7.456;2023-05-02T05:48:48;21.88;;;4.43;;
22916;SDS011;11624;53.250;7.456;2023-05-02T05:51:17;18.42;;;4.35;;
22916;SDS011;11624;53.250;7.456;2023-05-02T05:53:46;20.00;;;4.30;;
22916;SDS011;11624;53.250;7.456;2023-05-02T05:56:15;25.20;;;4.95;;
22916;SDS011;11624;53.250;7.456;2023-05-02T05:58:52;17.75;;;4.45;;
22916;SDS011;11624;53.250;7.456;2023-05-02T06:01:21;16.50;;;4.30;;
22916;SDS011;11624;53.250;7.456;2023-05-02T06:03:50;19.02;;;4.45;;
22916;SDS011;11624;53.250;7.456;2023-05-02T06:06:18;17.35;;;4.63;;
22916;SDS011;11624;53.250;7.456;2023-05-02T06:08:48;26.60;;;4.40;;
22916;SDS011;11624;53.250;7.456;2023-05-02T06:11:16;18.02;;;4.75;;
22916;SDS011;11624;53.250;7.456;2023-05-02T06:13:45;17.05;;;4.47;;
22916;SDS011;11624;53.250;7.456;2023-05-02T06:16:13;19.70;;;4.97;;
22916;SDS011;11624;53.250;7.456;2023-05-02T06:18:41;19.27;;;4.40;;
22916;SDS011;11624;53.250;7.456;2023-05-02T06:21:10;19.15;;;4.30;;
22916;SDS011;11624;53.250;7.456;2023-05-02T06:23:38;15.40;;;4.85;;
22916;SDS011;11624;53.250;7.456;2023-05-02T06:26:08;23.63;;;4.72;;
22916;SDS011;11624;53.250;7.456;2023-05-02T06:28:36;18.70;;;4.53;;
22916;SDS011;11624;53.250;7.456;2023-05-02T06:31:05;24.55;;;4.90;;
22916;SDS011;11624;53.250;7.456;2023-05-02T06:33:33;20.92;;;5.03;;
22916;SDS011;11624;53.250;7.456;2023-05-02T06:36:02;17.30;;;4.80;;
22916;SDS011;11624;53.250;7.456;2023-05-02T06:38:30;17.20;;;4.93;;
22916;SDS011;11624;53.250;7.456;2023-05-02T06:40:59;17.15;;;4.90;;
22916;SDS011;11624;53.250;7.456;2023-05-02T06:43:28;23.95;;;5.95;;
22916;SDS011;11624;53.250;7.456;2023-05-02T06:45:57;18.05;;;6.40;;
22916;SDS011;11624;53.250;7.456;2023-05-02T06:48:25;17.25;;;5.32;;
22916;SDS011;11624;53.250;7.456;2023-05-02T06:50:53;17.40;;;4.80;;
22916;SDS011;11624;53.250;7.456;2023-05-02T06:53:22;24.95;;;6.13;;
22916;SDS011;11624;53.250;7.456;2023-05-02T06:55:50;16.15;;;5.45;;
22916;SDS011;11624;53.250;7.456;2023-05-02T06:58:18;12.93;;;5.05;;
22916;SDS011;11624;53.250;7.456;2023-05-02T07:00:48;16.48;;;5.88;;
22916;SDS011;11624;53.250;7.456;2023-05-02T07:03:16;20.08;;;5.40;;
22916;SDS011;11624;53.250;7.456;2023-05-02T07:05:45;12.82;;;4.68;;
22916;SDS011;11624;53.250;7.456;2023-05-02T07:08:13;17.92;;;5.65;;
22916;SDS011;11624;53.250;7.456;2023-05-02T07:10:41;16.90;;;5.68;;
22916;SDS011;11624;53.250;7.456;2023-05-02T07:13:10;17.75;;;5.75;;
22916;SDS011;11624;53.250;7.456;2023-05-02T07:15:38;22.38;;;5.85;;
22916;SDS011;11624;53.250;7.456;2023-05-02T07:18:08;18.98;;;6.47;;
22916;SDS011;11624;53.250;7.456;2023-05-02T07:20:36;15.18;;;6.28;;
22916;SDS011;11624;53.250;7.456;2023-05-02T07:23:07;19.85;;;6.75;;
22916;SDS011;11624;53.250;7.456;2023-05-02T07:25:36;15.45;;;6.22;;
22916;SDS011;11624;53.250;7.456;2023-05-02T07:28:05;13.00;;;5.88;;
22916;SDS011;11624;53.250;7.456;2023-05-02T07:30:35;12.02;;;4.93;;
22916;SDS011;11624;53.250;7.456;2023-05-02T07:33:03;13.40;;;5.45;;
22916;SDS011;11624;53.250;7.456;2023-05-02T07:35:33;15.13;;;4.90;;
22916;SDS011;11624;53.250;7.456;2023-05-02T07:38:01;13.05;;;5.57;;
22916;SDS011;11624;53.250;7.456;2023-05-02T07:40:30;14.50;;;6.38;;
22916;SDS011;11624;53.250;7.456;2023-05-02T07:42:59;15.35;;;9.35;;
22916;SDS011;11624;53.250;7.456;2023-05-02T07:45:28;14.18;;;5.15;;
22916;SDS011;11624;53.250;7.456;2023-05-02T07:47:56;12.70;;;5.43;;
22916;SDS011;11624;53.250;7.456;2023-05-02T07:50:24;15.88;;;5.25;;
22916;SDS011;11624;53.250;7.456;2023-05-02T07:52:55;14.18;;;5.40;;
22916;SDS011;11624;53.250;7.456;2023-05-02T07:55:23;15.32;;;5.88;;
22916;SDS011;11624;53.250;7.456;2023-05-02T07:57:53;12.82;;;4.55;;
22916;SDS011;11624;53.250;7.456;2023-05-02T08:00:21;10.68;;;4.10;;
22916;SDS011;11624;53.250;7.456;2023-05-02T08:02:49;11.00;;;4.43;;
22916;SDS011;11624;53.250;7.456;2023-05-02T08:05:18;11.35;;;4.13;;
22916;SDS011;11624;53.250;7.456;2023-05-02T08:07:46;9.50;;;4.38;;
22916;SDS011;11624;53.250;7.456;2023-05-02T08:10:16;9.77;;;4.00;;
22916;SDS011;11624;53.250;7.456;2023-05-02T08:12:45;9.80;;;4.13;;
22916;SDS011;11624;53.250;7.456;2023-05-02T08:15:13;11.05;;;3.72;;
22916;SDS011;11624;53.250;7.456;2023-05-02T08:17:41;9.48;;;3.70;;
22916;SDS011;11624;53.250;7.456;2023-05-02T08:20:10;10.45;;;3.70;;
22916;SDS011;11624;53.250;7.456;2023-05-02T08:22:38;7.28;;;3.13;;
22916;SDS011;11624;53.250;7.456;2023-05-02T08:25:07;9.25;;;3.30;;
22916;SDS011;11624;53.250;7.456;2023-05-02T08:27:37;8.52;;;3.20;;
22916;SDS011;11624;53.250;7.456;2023-05-02T08:30:06;8.90;;;3.20;;
22916;SDS011;11624;53.250;7.456;2023-05-02T08:32:35;10.10;;;3.33;;
22916;SDS011;11624;53.250;7.456;2023-05-02T08:35:04;8.85;;;3.10;;
22916;SDS011;11624;53.250;7.456;2023-05-02T08:37:33;10.50;;;3.00;;
22916;SDS011;11624;53.250;7.456;2023-05-02T08:40:02;7.53;;;2.90;;
22916;SDS011;11624;53.250;7.456;2023-05-02T08:42:31;10.20;;;3.22;;
22916;SDS011;11624;53.250;7.456;2023-05-02T08:45:01;6.22;;;2.65;;
22916;SDS011;11624;53.250;7.456;2023-05-02T08:47:31;8.02;;;3.47;;
22916;SDS011;11624;53.250;7.456;2023-05-02T08:50:00;10.93;;;2.70;;
22916;SDS011;11624;53.250;7.456;2023-05-02T08:52:29;6.93;;;2.75;;
22916;SDS011;11624;53.250;7.456;2023-05-02T08:54:59;9.63;;;2.80;;
22916;SDS011;11624;53.250;7.456;2023-05-02T08:57:29;6.57;;;2.70;;
22916;SDS011;11624;53.250;7.456;2023-05-02T08:59:58;4.82;;;2.45;;
22916;SDS011;11624;53.250;7.456;2023-05-02T09:02:36;7.15;;;2.55;;
22916;SDS011;11624;53.250;7.456;2023-05-02T09:05:18;11.13;;;2.72;;
22916;SDS011;11624;53.250;7.456;2023-05-02T09:07:47;5.72;;;2.88;;
22916;SDS011;11624;53.250;7.456;2023-05-02T09:10:17;5.97;;;2.80;;
22916;SDS011;11624;53.250;7.456;2023-05-02T09:12:46;10.18;;;2.83;;
22916;SDS011;11624;53.250;7.456;2023-05-02T09:15:15;10.98;;;3.15;;
22916;SDS011;11624;53.250;7.456;2023-05-02T09:17:47;7.90;;;2.60;;
22916;SDS011;11624;53.250;7.456;2023-05-02T09:20:16;7.45;;;2.58;;
22916;SDS011;11624;53.250;7.456;2023-05-02T09:22:48;7.53;;;3.03;;
22916;SDS011;11624;53.250;7.456;2023-05-02T09:25:18;7.97;;;2.80;;
22916;SDS011;11624;53.250;7.456;2023-05-02T09:27:50;9.65;;;3.17;;
22916;SDS011;11624;53.250;7.456;2023-05-02T09:30:20;7.22;;;2.72;;
22916;SDS011;11624;53.250;7.456;2023-05-02T09:32:51;7.70;;;3.00;;
22916;SDS011;11624;53.250;7.456;2023-05-02T09:35:21;8.52;;;2.45;;
22916;SDS011;11624;53.250;7.456;2023-05-02T09:37:50;8.77;;;2.80;;
22916;SDS011;11624;53.250;7.456;2023-05-02T09:40:19;11.90;;;3.10;;
22916;SDS011;11624;53.250;7.456;2023-05-02T09:42:48;12.10;;;2.80;;
22916;SDS011;11624;53.250;7.456;2023-05-02T09:45:20;13.52;;;3.53;;
22916;SDS011;11624;53.250;7.456;2023-05-02T09:47:51;5.95;;;2.42;;
22916;SDS011;11624;53.250;7.456;2023-05-02T09:50:30;6.82;;;2.53;;
22916;SDS011;11624;53.250;7.456;2023-05-02T09:53:01;10.38;;;3.00;;
22916;SDS011;11624;53.250;7.456;2023-05-02T09:55:30;5.22;;;2.53;;
22916;SDS011;11624;53.250;7.456;2023-05-02T09:57:59;6.07;;;2.80;;
22916;SDS011;11624;53.250;7.456;2023-05-02T10:00:37;8.63;;;3.50;;
22916;SDS011;11624;53.250;7.456;2023-05-02T10:03:08;5.78;;;2.60;;
22916;SDS011;11624;53.250;7.456;2023-05-02T10:05:37;9.23;;;3.60;;
22916;SDS011;11624;53.250;7.456;2023-05-02T10:08:06;7.05;;;3.00;;
22916;SDS011;11624;53.250;7.456;2023-05-02T10:10:36;8.60;;;3.97;;
22916;SDS011;11624;53.250;7.456;2023-05-02T10:13:07;6.43;;;3.05;;
22916;SDS011;11624;53.250;7.456;2023-05-02T10:15:40;9.15;;;3.20;;
22916;SDS011;11624;53.250;7.456;2023-05-02T10:18:16;9.02;;;3.60;;
22916;SDS011;11624;53.250;7.456;2023-05-02T10:20:51;10.20;;;2.85;;
22916;SDS011;11624;53.250;7.456;2023-05-02T10:23:27;5.28;;;2.90;;
22916;SDS011;11624;53.250;7.456;2023-05-02T10:25:56;4.00;;;2.42;;
22916;SDS011;11624;53.250;7.456;2023-05-02T10:28:26;6.35;;;2.67;;
22916;SDS011;11624;53.250;7.456;2023-05-02T10:30:55;8.65;;;3.00;;
22916;SDS011;11624;53.250;7.456;2023-05-02T10:33:26;6.65;;;2.50;;
22916;SDS011;11624;53.250;7.456;2023-05-02T10:35:57;9.07;;;2.85;;
22916;SDS011;11624;53.250;7.456;2023-05-02T10:38:25;7.25;;;3.08;;
22916;SDS011;11624;53.250;7.456;2023-05-02T10:40:55;9.35;;;3.55;;
22916;SDS011;11624;53.250;7.456;2023-05-02T10:43:29;10.07;;;3.45;;
22916;SDS011;11624;53.250;7.456;2023-05-02T10:45:59;9.68;;;3.60;;
22916;SDS011;11624;53.250;7.456;2023-05-02T10:48:30;8.68;;;3.30;;
22916;SDS011;11624;53.250;7.456;2023-05-02T10:50:58;10.30;;;2.83;;
22916;SDS011;11624;53.250;7.456;2023-05-02T10:53:29;8.25;;;2.80;;
22916;SDS011;11624;53.250;7.456;2023-05-02T10:56:14;10.07;;;3.10;;
22916;SDS011;11624;53.250;7.456;2023-05-02T10:58:45;9.02;;;2.80;;
22916;SDS011;11624;53.250;7.456;2023-05-02T11:04:09;8.07;;;3.17;;
22916;SDS011;11624;53.250;7.456;2023-05-02T11:09:43;5.63;;;2.42;;
22916;SDS011;11624;53.250;7.456;2023-05-02T11:12:11;8.73;;;2.28;;
22916;SDS011;11624;53.250;7.456;2023-05-02T11:15:13;9.73;;;2.60;;
22916;SDS011;11624;53.250;7.456;2023-05-02T11:20:30;11.27;;;3.17;;
22916;SDS011;11624;53.250;7.456;2023-05-02T11:22:58;9.40;;;2.85;;
22916;SDS011;11624;53.250;7.456;2023-05-02T11:25:48;8.05;;;4.25;;
22916;SDS011;11624;53.250;7.456;2023-05-02T11:31:07;6.53;;;2.55;;
22916;SDS011;11624;53.250;7.456;2023-05-02T11:33:36;6.40;;;2.78;;
22916;SDS011;11624;53.250;7.456;2023-05-02T11:36:06;9.68;;;2.88;;
22916;SDS011;11624;53.250;7.456;2023-05-02T11:38:36;10.35;;;2.67;;
22916;SDS011;11624;53.250;7.456;2023-05-02T11:41:05;8.10;;;2.40;;
22916;SDS011;11624;53.250;7.456;2023-05-02T11:43:33;12.85;;;2.88;;
22916;SDS011;11624;53.250;7.456;2023-05-02T11:46:01;9.10;;;2.63;;
22916;SDS011;11624;53.250;7.456;2023-05-02T11:48:31;8.70;;;2.63;;
22916;SDS011;11624;53.250;7.456;2023-05-02T11:50:59;7.93;;;2.55;;
22916;SDS011;11624;53.250;7.456;2023-05-02T11:53:31;11.57;;;2.83;;
22916;SDS011;11624;53.250;7.456;2023-05-02T11:56:01;9.27;;;2.75;;
22916;SDS011;11624;53.250;7.456;2023-05-02T11:58:31;10.13;;;2.60;;
22916;SDS011;11624;53.250;7.456;2023-05-02T12:01:10;5.50;;;2.55;;
22916;SDS011;11624;53.250;7.456;2023-05-02T12:03:40;8.35;;;2.40;;
22916;SDS011;11624;53.250;7.456;2023-05-02T12:06:09;9.88;;;2.60;;
22916;SDS011;11624;53.250;7.456;2023-05-02T12:08:40;5.15;;;2.42;;
22916;SDS011;11624;53.250;7.456;2023-05-02T12:11:12;5.40;;;2.35;;
22916;SDS011;11624;53.250;7.456;2023-05-02T12:13:44;6.68;;;2.40;;
22916;SDS011;11624;53.250;7.456;2023-05-02T12:16:13;2.80;;;1.92;;
22916;SDS011;11624;53.250;7.456;2023-05-02T12:18:42;7.32;;;2.00;;
22916;SDS011;11624;53.250;7.456;2023-05-02T12:21:11;6.72;;;2.22;;
22916;SDS011;11624;53.250;7.456;2023-05-02T12:23:40;5.63;;;2.15;;
22916;SDS011;11624;53.250;7.456;2023-05-02T12:26:15;4.18;;;1.90;;
22916;SDS011;11624;53.250;7.456;2023-05-02T12:28:47;5.50;;;2.22;;
22916;SDS011;11624;53.250;7.456;2023-05-02T12:31:16;3.42;;;1.67;;
22916;SDS011;11624;53.250;7.456;2023-05-02T12:33:45;8.77;;;2.08;;
22916;SDS011;11624;53.250;7.456;2023-05-02T12:36:18;5.90;;;2.10;;
22916;SDS011;11624;53.250;7.456;2023-05-02T12:38:48;3.00;;;1.80;;
22916;SDS011;11624;53.250;7.456;2023-05-02T12:41:29;5.43;;;1.85;;
22916;SDS011;11624;53.250;7.456;2023-05-02T12:43:59;4.00;;;1.77;;
22916;SDS011;11624;53.250;7.456;2023-05-02T12:46:27;6.07;;;1.83;;
22916;SDS011;11624;53.250;7.456;2023-05-02T12:49:00;9.23;;;2.08;;
22916;SDS011;11624;53.250;7.456;2023-05-02T12:51:29;5.10;;;2.10;;
22916;SDS011;11624;53.250;7.456;2023-05-02T12:53:59;9.38;;;2.30;;
22916;SDS011;11624;53.250;7.456;2023-05-02T12:56:28;4.80;;;1.80;;
22916;SDS011;11624;53.250;7.456;2023-05-02T12:58:58;6.18;;;2.30;;
22916;SDS011;11624;53.250;7.456;2023-05-02T13:01:31;8.07;;;2.00;;
22916;SDS011;11624;53.250;7.456;2023-05-02T13:04:01;6.22;;;1.90;;
22916;SDS011;11624;53.250;7.456;2023-05-02T13:06:29;5.80;;;1.85;;
22916;SDS011;11624;53.250;7.456;2023-05-02T13:08:57;9.32;;;2.00;;
22916;SDS011;11624;53.250;7.456;2023-05-02T13:11:27;8.68;;;2.33;;
22916;SDS011;11624;53.250;7.456;2023-05-02T13:13:55;4.57;;;1.90;;
22916;SDS011;11624;53.250;7.456;2023-05-02T13:16:25;9.48;;;2.22;;
22916;SDS011;11624;53.250;7.456;2023-05-02T13:18:55;9.13;;;2.38;;
22916;SDS011;11624;53.250;7.456;2023-05-02T13:21:24;12.68;;;2.42;;
22916;SDS011;11624;53.250;7.456;2023-05-02T13:23:52;9.88;;;2.45;;
22916;SDS011;11624;53.250;7.456;2023-05-02T13:26:20;8.60;;;2.45;;
22916;SDS011;11624;53.250;7.456;2023-05-02T13:28:50;5.68;;;2.15;;
22916;SDS011;11624;53.250;7.456;2023-05-02T13:31:18;10.77;;;2.63;;
22916;SDS011;11624;53.250;7.456;2023-05-02T13:33:46;9.07;;;2.72;;
22916;SDS011;11624;53.250;7.456;2023-05-02T13:36:14;8.57;;;2.42;;
22916;SDS011;11624;53.250;7.456;2023-05-02T13:38:42;8.98;;;2.40;;
22916;SDS011;11624;53.250;7.456;2023-05-02T13:41:10;8.95;;;2.40;;
22916;SDS011;11624;53.250;7.456;2023-05-02T13:43:38;7.97;;;2.67;;
22916;SDS011;11624;53.250;7.456;2023-05-02T13:46:08;7.95;;;2.13;;
22916;SDS011;11624;53.250;7.456;2023-05-02T13:48:36;6.70;;;2.50;;
22916;SDS011;11624;53.250;7.456;2023-05-02T13:51:04;5.57;;;2.30;;
22916;SDS011;11624;53.250;7.456;2023-05-02T13:53:32;9.85;;;2.60;;
22916;SDS011;11624;53.250;7.456;2023-05-02T13:56:01;4.93;;;2.30;;
22916;SDS011;11624;53.250;7.456;2023-05-02T13:58:29;10.75;;;2.40;;
22916;SDS011;11624;53.250;7.456;2023-05-02T14:00:57;8.88;;;2.65;;
22916;SDS011;11624;53.250;7.456;2023-05-02T14:03:27;7.93;;;2.75;;
22916;SDS011;11624;53.250;7.456;2023-05-02T14:05:56;8.65;;;2.50;;
22916;SDS011;11624;53.250;7.456;2023-05-02T14:08:24;5.55;;;2.58;;
22916;SDS011;11624;53.250;7.456;2023-05-02T14:10:53;9.85;;;2.55;;
22916;SDS011;11624;53.250;7.456;2023-05-02T14:13:21;8.00;;;2.53;;
22916;SDS011;11624;53.250;7.456;2023-05-02T14:15:50;8.65;;;2.22;;
22916;SDS011;11624;53.250;7.456;2023-05-02T14:18:19;9.90;;;2.30;;
22916;SDS011;11624;53.250;7.456;2023-05-02T14:20:49;9.02;;;2.25;;
22916;SDS011;11624;53.250;7.456;2023-05-02T14:23:17;6.97;;;2.15;;
22916;SDS011;11624;53.250;7.456;2023-05-02T14:25:45;5.97;;;2.00;;
22916;SDS011;11624;53.250;7.456;2023-05-02T14:28:13;7.72;;;2.30;;
22916;SDS011;11624;53.250;7.456;2023-05-02T14:30:41;10.82;;;2.35;;
22916;SDS011;11624;53.250;7.456;2023-05-02T14:33:09;5.40;;;2.00;;
22916;SDS011;11624;53.250;7.456;2023-05-02T14:35:37;9.68;;;1.98;;
22916;SDS011;11624;53.250;7.456;2023-05-02T14:38:07;6.07;;;2.00;;
22916;SDS011;11624;53.250;7.456;2023-05-02T14:40:35;6.40;;;2.00;;
22916;SDS011;11624;53.250;7.456;2023-05-02T14:43:03;5.05;;;1.98;;
22916;SDS011;11624;53.250;7.456;2023-05-02T14:45:31;7.57;;;2.65;;
22916;SDS011;11624;53.250;7.456;2023-05-02T14:48:00;4.55;;;2.10;;
22916;SDS011;11624;53.250;7.456;2023-05-02T14:50:28;6.50;;;2.42;;
22916;SDS011;11624;53.250;7.456;2023-05-02T14:52:56;3.17;;;2.08;;
22916;SDS011;11624;53.250;7.456;2023-05-02T14:55:26;7.72;;;2.28;;
22916;SDS011;11624;53.250;7.456;2023-05-02T14:57:54;6.57;;;2.08;;
22916;SDS011;11624;53.250;7.456;2023-05-02T15:00:23;8.07;;;2.28;;
22916;SDS011;11624;53.250;7.456;2023-05-02T15:02:52;9.98;;;2.25;;
22916;SDS011;11624;53.250;7.456;2023-05-02T15:05:20;7.22;;;2.20;;
22916;SDS011;11624;53.250;7.456;2023-05-02T15:07:48;5.95;;;2.20;;